CYQT

Thunder Bay Airport

Thunder Bay, , Canada
TAF CYQT 171939Z 1720/1808 31010G20KT P6SM BKN050 BECMG 1720/1722 SCT050 FM180000 28008KT P6SM FEW050 RMK NXT FCST BY 180200Z
Issued Valid From Valid To
Oct-17 @ 19:39 UTC
(2 hours ago)
Oct-17 @ 20:00 UTC
(2 hours ago)
Oct-18 @ 08:00 UTC
(in 10 hours)
Oct-17 @ 20:00 to Oct-18 @ 08:00
TAF CYQT 171939Z 1720/1808 31010G20KT P6SM BKN050
Wind Visibility Clouds
310° at 10 knots
 Gusting to 20 knots
Greater than 6 miles
  • Broken at 5,000' AGL
Becoming Oct-17 @ 20:00 to Oct-18 @ 00:00
BECMG 1720/1722 SCT050
Wind Visibility Clouds
310° at 10 knots
 Gusting to 20 knots
Greater than 6 miles
  • Scattered at 5,000' AGL
From Oct-18 @ 00:00 to Oct-18 @ 08:00
FM180000 28008KT P6SM FEW050 RMK NXT FCST BY 180200Z
Wind Visibility Clouds
280° at 8 knots Greater than 6 miles
  • Few at 5,000' AGL
TAF CYQT 171939Z 1720/1808 31010G20KT P6SM BKN050 BECMG 1720/1722 SCT050 FM180000 28008KT P6SM FEW050 RMK NXT FCST BY 180200Z
Issued Oct-17 @ 19:39 UTC
(2 hours ago)
Valid From Oct-17 @ 20:00 UTC
(2 hours ago)
Valid To Oct-18 @ 08:00 UTC
(in 10 hours)
Oct-17 @ 20:00 - Oct-18 @ 08:00
Wind Visibility
310° at 10 knots
 Gusting to 20 knots
Greater than 6 miles
Clouds
  • Broken at 5,000' AGL
Becoming Oct-17 @ 20:00 - Oct-18 @ 00:00
Wind Visibility
310° at 10 knots
 Gusting to 20 knots
Greater than 6 miles
Clouds
  • Scattered at 5,000' AGL
From Oct-18 @ 00:00 - Oct-18 @ 08:00
Wind Visibility
280° at 8 knots Greater than 6 miles
Clouds
  • Few at 5,000' AGL